航空気象通報

ウインドサーファーのための航空気象通報による風予報です。

逗子市の広報にヒロ先生、ジョージ先生

2011年08月31日 21時44分56秒 | Diary

今月の広報ずしの表紙にヒロ先生、ジョージ先生が載ってました。

コメント

8/31-9/1の航空気象通報(国内、海外)

2011年08月31日 21時43分49秒 | TAF

羽田空港
TAF RJTT 310845Z 3109/0112 10010KT 9999 FEW010 SCT020 BKN030
日本時間31日18時-1日21時:100度から10ノットの風

富士山静岡空港
TAF RJNS 310845Z 3109/0112 06010KT 8000 FEW008 BKN015
      TEMPO 3112/3118 3000 SHRA BR FEW003 BKN005
      TEMPO 0100/0106 08015G25KT
      TEMPO 0106/0112 3000 SHRA BR FEW003 BKN005
日本時間31日18時-1日21時:060度から10ノットの風
但し、1日09-15時の間:一時、080度から15ノット、突風25ノット

但し、31日21時-1日03時の間:一時、
但し、1日15時-1日21時の間:一時、

福岡空港
TAF RJFF 310846Z 3109/0112 34010KT 9999 FEW020
      BECMG 3111/3113 04004KT
      BECMG 0100/0103 34011KT
日本時間31日18-20時:340度から10ノットの風
20-22時:風が変化
22時-1日09時:040度から4ノットの風
09-12時:風が変化
12-21時:340度から11ノットの風

那覇空港
TAF ROAH 310839Z 3109/0112 35010KT 9999 FEW020
日本時間31日18時-1日21時:350度から10ノットの風

マウイのカフルイ空港
TAF PHOG 311133Z 3112/0112 08007KT P6SM FEW050
     FM312000 07018G28KT P6SM FEW035 SCT060
     FM010500 07013G20KT P6SM SCT025 BKN050
     FM010800 06008KT P6SM SCT050
ハワイ時間31日02-10時:080度から7ノットの風
10-19時:070度から18ノット、突風28ノット
19-22時:070度から13ノット、突風20ノット
22時-1日02時:060度から8ノットの風

サイパン空港
TAF PGSN 301120Z 3012/3112 21006KT P6SM VCSH SCT018 BKN100
マリアナ時間30日22時-31日22時:210度から6ノットの風

コメント

8/30-8/31の航空気象通報(国内、海外)

2011年08月30日 21時12分38秒 | TAF

羽田空港
TAF RJTT 300841Z 3009/3112 04012KT 9999 FEW030 SCT050
      TEMPO 3011/3015 4000 SHRA BR FEW004 BKN009
      BECMG 3014/3016 FEW006 BKN009 BKN012
      TEMPO 3015/3021 4000 -SHRA BR FEW004 BKN006
      BECMG 3100/3103 07010KT FEW009 SCT012 BKN020
      TEMPO 3106/3112 4000 SHRA BR FEW004 BKN009
日本時間30日18時-31日09時:040度から12ノットの風
09-12時:風が変化
12-21時:070度から10ノットの風
、30日23時-31日01時の後、
但し、30日20-24時の間:一時、
但し、31日00-06時の間:一時、
但し、31日15-21時の間:一時、

富士山静岡空港
TAF RJNS 300840Z 3009/3112 06010KT 9999 FEW015 BKN030
      TEMPO 3109/3112 4000 SHRA BR FEW005 BKN009
日本時間30日18時-31日21時:060度から10ノットの風

但し、31日18-21時の間:一時、

福岡空港
TAF RJFF 300843Z 3009/3112 36009KT 9999 FEW030
      BECMG 3014/3016 13004KT
      BECMG 3100/3103 34011KT
日本時間30日18-23時:360度から9ノットの風
23時-31日01時:風が変化
01-09時:130度から4ノットの風
09-12時:風が変化
12-21時:340度から11ノットの風

那覇空港
TAF ROAH 300847Z 3009/3112 12006KT 9999 SCT020
      BECMG 3014/3016 07005KT
日本時間30日18時-31日23時:120度から6ノットの風
23時-31日01時:風が変化
01-21時:070度から5ノットの風

マウイのカフルイ空港
TAF PHOG 301120Z 3012/3112 05008KT P6SM FEW030 SCT060
     FM302000 05017G25KT P6SM SCT050
     FM310600 05010KT P6SM FEW035 SCT050
ハワイ時間30日02-10時:050度から8ノットの風
10-20時:050度から17ノット、突風25ノット
20時-31日02時:050度から10ノットの風

サイパン空港
TAF PGSN 301120Z 3012/3112 21006KT P6SM VCSH SCT018 BKN100
マリアナ時間30日22時-31日22時:210度から6ノットの風

コメント

8/29-8/30の航空気象通報(国内、海外)

2011年08月29日 22時04分27秒 | TAF

羽田空港
TAF RJTT 290841Z 2909/3012 07014KT 9999 FEW009 SCT012 BKN030
      BECMG 2911/2913 04012KT
      TEMPO 2913/2921 FEW006 BKN009
日本時間29日18-20時:070度から14ノットの風
20-22時:風が変化
22時-30日21時:040度から12ノットの風

富士山静岡空港
TAF RJNS 290839Z 2909/3012 04004KT 9999 FEW030
      BECMG 3000/3003 07014KT
日本時間29日18-30日09時:040度から4ノットの風
09-12時:風が変化
12-21時:070度から14ノットの風

福岡空港
TAF RJFF 290840Z 2909/3012 36010KT 9999 FEW035
      BECMG 2913/2915 14005KT
      BECMG 3000/3003 34010KT
日本時間29日18-22時:360度から10ノットの風
22-24時:風が変化
30日00-09時:140度から5ノットの風
09-12時:風が変化
12-21時:340度から10ノットの風

那覇空港
TAF ROAH 290850Z 2909/3012 10007KT 9999 SCT020
      BECMG 2914/2916 08005KT
日本時間29日18-23時:100度から7ノットの風
23時-30日01時:風が変化
01-21時:080度から5ノットの風

マウイのカフルイ空港
TAF PHOG 291120Z 2912/3012 04007KT P6SM SCT050
     FM291900 05018G25KT P6SM SCT060
     FM300400 05012G18KT P6SM SCT060
     FM300700 05010KT P6SM SCT060
ハワイ時間29日02-09時:040度から7ノットの風
09-18時:050度から18ノット、突風25ノット
18-21時:050度から12ノット、突風18ノット
21時-30日02時:050度から10ノットの風

サイパン空港
TAF PGSN 291120Z 2912/3012 19005KT P6SM VCSH FEW020 SCT120
マリアナ時間29日22時-30日22時:190度から5ノットの風

コメント

8/28-8/29の航空気象通報(国内、海外)

2011年08月28日 22時01分48秒 | TAF

羽田空港
TAF RJTT 280837Z 2809/2912 08008KT 9999 FEW020 SCT030
      BECMG 2812/2814 05008KT
      BECMG 2900/2903 08008KT
日本時間28日18-21時:080度から8ノットの風
21-23時:風が変化
23時-29日09時:050度から8ノットの風
09-12時:風が変化
12-21時:080度から14ノットの風

富士山静岡空港
TAF RJNS 280838Z 2809/2912 12005KT 9999 FEW030
      BECMG 2810/2812 34004KT
      BECMG 2900/2903 12008KT
日本時間28日18-19時:120度から5ノットの風
19-21時:風が変化
21時-29日09時:340度から4ノットの風
09-12時:風が変化
12-21時:120度から8ノットの風

福岡空港
TAF RJFF 280839Z 2809/2912 36008KT 9999 FEW025 SCT040
      BECMG 2812/2814 14005KT
      BECMG 2900/2903 34008KT
日本時間28日18-21時:360度から8ノットの風
21-23時:風が変化
23時-29日09時:140度から5ノットの風
09-12時:風が変化
12-21時:340度から8ノットの風

那覇空港
TAF ROAH 280841Z 2809/2912 08009KT 9999 SCT020
日本時間28日18時-29日21時:080度から9ノットの風

マウイのカフルイ空港
TAF PHOG 281126Z 2812/2912 04005KT P6SM BKN060
     FM281800 04010KT P6SM SCT060
     FM282000 05018G25KT P6SM FEW050
     FM290400 05012KT P6SM SCT050
     FM291000 05006KT P6SM SCT060
ハワイ時間28日02-08時:040度から5ノットの風

08-10時:040度から10ノットの風
10-18時:050度から18ノット、突風25ノット
18-24時:050度から12ノットの風
29日00-02時:050度から6ノットの風

サイパン空港
TAF PGSN 281120Z 2812/2912 20007KT P6SM VCSH SCT018 SCT040 BKN100
マリアナ時間28日22時-29日22時:200度から7ノットの風ト

コメント